createdAt,value
2022-12-01T00:01:07.809Z,60.72
2022-12-01T00:03:35.368Z,66.55
2022-12-01T00:06:02.977Z,58.90
2022-12-01T00:08:30.957Z,57.58
2022-12-01T00:11:04.876Z,62.30
2022-12-01T00:13:32.332Z,57.92
2022-12-01T00:16:09.589Z,68.93
2022-12-01T00:18:36.181Z,68.75
2022-12-01T00:21:02.792Z,65.85
2022-12-01T00:23:29.539Z,61.67
2022-12-01T00:26:02.833Z,54.92
2022-12-01T00:28:29.432Z,60.47
2022-12-01T00:30:55.997Z,57.38
2022-12-01T00:33:22.663Z,57.10
2022-12-01T00:35:49.267Z,64.30
2022-12-01T00:38:15.906Z,61.67
2022-12-01T00:40:42.785Z,62.10
2022-12-01T00:43:09.403Z,70.50
2022-12-01T00:45:36.064Z,81.57
2022-12-01T00:48:02.770Z,77.65
2022-12-01T00:50:29.667Z,84.93
2022-12-01T00:52:56.235Z,83.28
2022-12-01T00:55:22.805Z,80.28
2022-12-01T00:57:49.366Z,84.20
2022-12-01T01:00:17.194Z,98.35
2022-12-01T01:02:43.925Z,89.70
2022-12-01T01:05:10.907Z,97.13
2022-12-01T01:07:37.741Z,83.72
2022-12-01T01:10:05.225Z,77.97
2022-12-01T01:12:32.198Z,83.53
2022-12-01T01:14:58.876Z,85.22
2022-12-01T01:17:25.506Z,85.55
2022-12-01T01:19:55.152Z,80.50
2022-12-01T01:24:48.209Z,94.53
2022-12-01T01:27:14.810Z,87.68
2022-12-01T01:29:42.573Z,77.10
2022-12-01T01:32:09.274Z,83.40
2022-12-01T01:34:35.874Z,80.05
2022-12-01T01:37:02.524Z,79.07
2022-12-01T01:39:29.251Z,77.85
2022-12-01T01:41:55.805Z,80.57
2022-12-01T01:44:51.478Z,71.53
2022-12-01T01:47:40.129Z,70.43
2022-12-01T01:50:13.611Z,69.82
2022-12-01T01:52:46.197Z,63.25
2022-12-01T01:55:14.550Z,66.68
2022-12-01T01:57:43.589Z,61.78
2022-12-01T02:00:15.290Z,65.32
2022-12-01T02:02:45.451Z,68.25
2022-12-01T02:05:23.901Z,65.50
2022-12-01T02:07:53.363Z,68.28
2022-12-01T02:10:22.698Z,68.75
2022-12-01T02:13:17.000Z,72.55
2022-12-01T02:16:01.422Z,73.07
2022-12-01T02:18:34.978Z,88.80
2022-12-01T02:21:35.502Z,75.40
2022-12-01T02:24:40.971Z,79.45
2022-12-01T02:27:19.675Z,83.72
2022-12-01T02:29:49.476Z,79.93
2022-12-01T02:33:01.225Z,75.63
2022-12-01T02:35:38.147Z,88.30
2022-12-01T02:38:19.975Z,90.88
2022-12-01T02:40:57.541Z,87.82
2022-12-01T02:43:52.105Z,87.38
2022-12-01T02:46:41.856Z,87.13
2022-12-01T02:49:16.959Z,90.97
2022-12-01T02:51:44.930Z,93.47
2022-12-01T02:54:14.585Z,82.70
2022-12-01T02:59:14.985Z,81.95
2022-12-01T03:01:44.930Z,84.05
2022-12-01T03:04:30.419Z,75.22
2022-12-01T03:07:21.465Z,78.35
2022-12-01T03:09:54.011Z,77.13
2022-12-01T03:12:36.756Z,76.85
2022-12-01T03:15:08.718Z,75.20
2022-12-01T03:17:43.940Z,76.55
2022-12-01T03:20:27.876Z,78.40
2022-12-01T03:23:00.354Z,71.95
2022-12-01T03:25:29.690Z,74.75
2022-12-01T03:30:48.590Z,71.63
2022-12-01T03:33:35.035Z,69.43
2022-12-01T03:36:05.101Z,69.75
2022-12-01T03:38:36.197Z,61.88
2022-12-01T03:41:32.334Z,72.15
2022-12-01T03:44:17.294Z,65.80
2022-12-01T03:47:11.481Z,68.60
2022-12-01T03:49:40.270Z,66.88
2022-12-01T03:52:23.268Z,68.53
2022-12-01T03:55:09.098Z,69.95
2022-12-01T03:57:46.558Z,70.93
2022-12-01T04:00:15.547Z,71.70
2022-12-01T04:02:42.832Z,69.95
2022-12-01T04:05:09.452Z,70.28
2022-12-01T04:07:37.789Z,68.88
2022-12-01T04:10:06.119Z,77.32
2022-12-01T04:12:33.137Z,82.78
2022-12-01T04:15:02.376Z,79.82
2022-12-01T04:17:29.016Z,82.72
2022-12-01T04:19:56.293Z,84.95
2022-12-01T04:22:23.349Z,83.68
2022-12-01T04:24:50.015Z,77.68
2022-12-01T04:27:16.902Z,78.90
2022-12-01T04:29:43.492Z,87.43
2022-12-01T04:32:10.371Z,83.85
2022-12-01T04:34:36.939Z,89.38
2022-12-01T04:37:05.688Z,91.25
2022-12-01T04:39:32.290Z,90.30
2022-12-01T04:41:58.982Z,95.88
2022-12-01T04:44:30.121Z,91.55
2022-12-01T04:46:59.936Z,94.30
2022-12-01T04:49:26.695Z,95.15
2022-12-01T04:51:53.294Z,94.72
2022-12-01T04:54:20.048Z,93.47
2022-12-01T04:56:46.639Z,93.05
2022-12-01T04:59:13.194Z,92.22
2022-12-01T05:01:40.156Z,88.90
2022-12-01T05:04:06.977Z,87.20
2022-12-01T05:06:33.768Z,92.47
2022-12-01T05:09:01.906Z,94.95
2022-12-01T05:11:30.524Z,103.07
2022-12-01T05:13:57.259Z,108.28
2022-12-01T05:16:30.010Z,107.90
2022-12-01T05:19:17.115Z,111.88
2022-12-01T05:21:45.498Z,111.20
2022-12-01T05:24:13.605Z,116.70
2022-12-01T05:26:41.551Z,101.93
2022-12-01T05:29:09.616Z,117.72
2022-12-01T05:31:36.539Z,113.82
2022-12-01T05:34:03.262Z,114.30
2022-12-01T05:36:29.806Z,110.88
2022-12-01T05:38:56.408Z,116.63
2022-12-01T05:41:22.999Z,112.30
2022-12-01T05:43:49.750Z,116.05
2022-12-01T05:46:16.612Z,117.38
2022-12-01T05:48:43.436Z,113.40
2022-12-01T05:51:13.111Z,114.80
2022-12-01T05:53:39.990Z,118.03
2022-12-01T05:56:07.978Z,119.53
2022-12-01T05:58:35.265Z,128.63
2022-12-01T06:01:02.668Z,121.65
2022-12-01T06:03:29.577Z,119.97
2022-12-01T06:05:56.437Z,122.30
2022-12-01T06:08:23.134Z,121.07
2022-12-01T06:10:49.764Z,120.53
2022-12-01T06:13:16.457Z,120.60
2022-12-01T06:15:43.275Z,123.97
2022-12-01T06:18:09.850Z,118.43
2022-12-01T06:20:36.496Z,126.93
2022-12-01T06:23:03.186Z,129.48
2022-12-01T06:25:29.852Z,129.30
2022-12-01T06:27:58.274Z,132.45
2022-12-01T06:30:25.650Z,124.68
2022-12-01T06:32:52.329Z,130.10
2022-12-01T06:35:19.653Z,125.72
2022-12-01T06:37:46.272Z,126.80
2022-12-01T06:40:13.165Z,126.90
2022-12-01T06:42:39.835Z,122.43
2022-12-01T06:45:07.059Z,126.60
2022-12-01T06:47:33.723Z,134.75
2022-12-01T06:50:00.752Z,128.50
2022-12-01T06:52:27.333Z,132.15
2022-12-01T06:54:53.928Z,126.38
2022-12-01T06:57:20.941Z,132.05
2022-12-01T06:59:48.089Z,126.97
2022-12-01T07:02:16.517Z,132.77
2022-12-01T07:04:43.133Z,139.02
2022-12-01T07:07:10.486Z,131.95
2022-12-01T07:09:37.080Z,135.07
2022-12-01T07:12:03.774Z,136.40
2022-12-01T07:14:31.626Z,128.88
2022-12-01T07:16:59.088Z,140.30
2022-12-01T07:19:25.716Z,124.80
2022-12-01T07:21:52.317Z,125.22
2022-12-01T07:24:18.875Z,125.82
2022-12-01T07:26:45.518Z,125.57
2022-12-01T07:29:12.367Z,117.75
2022-12-01T07:31:39.183Z,123.32
2022-12-01T07:34:06.565Z,123.22
2022-12-01T07:36:33.556Z,113.35
2022-12-01T07:39:04.100Z,118.07
2022-12-01T07:41:30.674Z,121.30
2022-12-01T07:43:57.243Z,114.07
2022-12-01T07:46:26.254Z,115.15
2022-12-01T07:48:54.197Z,116.70
2022-12-01T07:51:22.332Z,119.68
2022-12-01T07:53:50.508Z,118.53
2022-12-01T07:56:18.014Z,121.88
2022-12-01T07:58:45.024Z,118.20
2022-12-01T08:01:14.723Z,118.63
2022-12-01T08:03:42.363Z,124.10
2022-12-01T08:06:10.260Z,119.40
2022-12-01T08:08:39.400Z,123.78
2022-12-01T08:11:11.714Z,125.50
2022-12-01T08:13:39.161Z,126.70
2022-12-01T08:16:07.944Z,122.15
2022-12-01T08:18:35.486Z,118.20
2022-12-01T08:21:02.287Z,125.22
2022-12-01T08:23:28.850Z,125.43
2022-12-01T08:25:55.554Z,123.95
2022-12-01T08:28:22.440Z,125.80
2022-12-01T08:30:49.178Z,128.70
2022-12-01T08:33:15.917Z,124.43
2022-12-01T08:35:42.648Z,125.45
2022-12-01T08:38:10.045Z,125.25
2022-12-01T08:40:36.638Z,129.30
2022-12-01T08:43:03.321Z,119.55
2022-12-01T08:45:29.953Z,121.65
2022-12-01T08:47:59.894Z,126.80
2022-12-01T08:50:27.520Z,114.13
2022-12-01T08:52:54.512Z,117.07
2022-12-01T08:55:22.294Z,116.50
2022-12-01T08:57:48.951Z,114.22
2022-12-01T09:00:16.629Z,115.82
2022-12-01T09:02:43.421Z,113.00
2022-12-01T09:05:10.300Z,118.78
2022-12-01T09:07:37.003Z,116.20
2022-12-01T09:10:04.746Z,117.40
2022-12-01T09:12:31.304Z,109.43
2022-12-01T09:14:57.852Z,118.78
2022-12-01T09:17:24.566Z,114.53
2022-12-01T09:19:51.639Z,112.45
2022-12-01T09:22:18.481Z,118.95
2022-12-01T09:24:45.155Z,112.57
2022-12-01T09:27:11.851Z,107.30
2022-12-01T09:29:38.527Z,115.45
2022-12-01T09:32:05.325Z,118.45
2022-12-01T09:34:31.942Z,113.15
2022-12-01T09:36:58.912Z,115.68
2022-12-01T09:39:25.855Z,110.55
2022-12-01T09:41:57.631Z,101.75
2022-12-01T09:44:42.456Z,110.32
2022-12-01T09:47:30.443Z,103.00
2022-12-01T09:50:00.314Z,101.60
2022-12-01T09:52:32.591Z,104.43
2022-12-01T09:55:00.788Z,100.90
2022-12-01T09:57:32.530Z,103.03
2022-12-01T10:00:05.278Z,102.38
2022-12-01T10:07:58.814Z,106.38
2022-12-01T10:10:34.415Z,106.57
2022-12-01T10:13:01.619Z,102.28
2022-12-01T10:15:53.298Z,101.03
2022-12-01T10:18:58.284Z,105.68
2022-12-01T10:22:02.609Z,102.93
2022-12-01T10:24:44.228Z,105.03
2022-12-01T10:27:56.150Z,102.78
2022-12-01T10:30:24.087Z,106.38
2022-12-01T10:32:55.077Z,103.97
2022-12-01T10:35:24.287Z,105.68
2022-12-01T10:37:58.336Z,107.03
2022-12-01T10:40:27.430Z,99.20
2022-12-01T10:42:54.736Z,101.90
2022-12-01T10:45:31.574Z,96.50
2022-12-01T10:48:16.454Z,99.03
2022-12-01T10:50:48.432Z,92.70
2022-12-01T10:53:24.427Z,99.72
2022-12-01T10:55:58.858Z,95.65
2022-12-01T10:58:26.222Z,95.65
2022-12-01T11:01:03.316Z,96.32
2022-12-01T11:03:33.000Z,97.10
2022-12-01T11:08:38.957Z,99.28
2022-12-01T11:11:06.462Z,99.28
2022-12-01T11:13:37.152Z,85.85
2022-12-01T11:16:06.238Z,89.63
2022-12-01T11:18:34.617Z,91.78
2022-12-01T11:21:07.219Z,89.25
2022-12-01T11:23:44.507Z,87.50
2022-12-01T11:26:13.526Z,90.07
2022-12-01T11:29:00.525Z,88.18
2022-12-01T11:31:43.454Z,85.82
2022-12-01T11:34:21.042Z,86.80
2022-12-01T11:36:51.550Z,84.13
2022-12-01T11:39:27.196Z,92.60
2022-12-01T11:42:00.216Z,89.60
2022-12-01T11:44:50.161Z,89.13
2022-12-01T11:47:24.446Z,88.07
2022-12-01T11:49:54.487Z,91.50
2022-12-01T11:55:20.192Z,87.55
2022-12-01T11:57:50.053Z,85.90
2022-12-01T12:00:18.797Z,82.32
2022-12-01T12:03:06.879Z,82.40
2022-12-01T12:05:39.324Z,78.30
2022-12-01T12:08:23.879Z,80.80
2022-12-01T12:11:04.003Z,82.75
2022-12-01T12:13:47.575Z,79.15
2022-12-01T12:16:25.342Z,84.20
2022-12-01T12:19:12.780Z,84.28
2022-12-01T12:21:46.195Z,78.47
2022-12-01T12:24:51.239Z,78.72
2022-12-01T12:27:42.506Z,75.07
2022-12-01T12:30:30.179Z,74.10
2022-12-01T12:33:22.959Z,73.32
2022-12-01T12:36:04.674Z,69.00
2022-12-01T12:39:12.089Z,65.20
2022-12-01T12:41:44.450Z,76.20
2022-12-01T12:44:10.954Z,68.03
2022-12-01T12:46:49.912Z,67.43
2022-12-01T12:49:20.678Z,61.97
2022-12-01T12:52:08.360Z,62.05
2022-12-01T12:55:17.559Z,66.10
2022-12-01T12:57:53.741Z,71.00
2022-12-01T13:00:23.781Z,62.65
2022-12-01T13:02:59.718Z,62.60
2022-12-01T13:05:57.524Z,70.13
2022-12-01T13:08:35.277Z,68.10
2022-12-01T13:11:13.090Z,69.13
2022-12-01T13:14:12.073Z,68.43
2022-12-01T13:16:45.456Z,71.38
2022-12-01T13:19:16.787Z,69.03
2022-12-01T13:21:45.859Z,75.60
2022-12-01T13:24:22.794Z,68.97
2022-12-01T13:26:53.905Z,72.70
2022-12-01T13:29:23.610Z,66.22
2022-12-01T13:34:37.247Z,68.60
2022-12-01T13:37:04.436Z,69.90
2022-12-01T13:39:36.466Z,64.55
2022-12-01T13:42:08.860Z,71.05
2022-12-01T13:44:44.784Z,71.80
2022-12-01T13:47:11.272Z,72.50
2022-12-01T13:49:40.721Z,72.35
2022-12-01T13:52:22.692Z,72.82
2022-12-01T13:55:07.450Z,73.35
2022-12-01T13:57:35.688Z,69.45
2022-12-01T14:00:05.672Z,70.80
2022-12-01T14:02:41.038Z,73.70
2022-12-01T14:05:39.514Z,70.10
2022-12-01T14:08:25.119Z,72.05
2022-12-01T14:11:01.633Z,68.80
2022-12-01T14:13:30.028Z,71.85
2022-12-01T14:16:02.661Z,77.63
2022-12-01T14:18:49.267Z,74.47
2022-12-01T14:21:16.557Z,79.85
2022-12-01T14:24:02.523Z,77.07
2022-12-01T14:26:30.452Z,75.68
2022-12-01T14:29:00.230Z,77.18
2022-12-01T14:31:33.113Z,74.50
2022-12-01T14:34:18.884Z,71.95
2022-12-01T14:37:02.807Z,70.82
2022-12-01T14:39:36.802Z,75.30
2022-12-01T14:42:43.101Z,68.25
2022-12-01T14:45:15.084Z,70.57
2022-12-01T14:47:51.346Z,77.43
2022-12-01T14:50:28.255Z,60.83
2022-12-01T14:53:13.748Z,69.30
2022-12-01T14:55:46.065Z,60.83
2022-12-01T14:58:20.494Z,62.67
2022-12-01T15:01:05.599Z,61.63
2022-12-01T15:03:37.360Z,61.30
2022-12-01T15:06:04.804Z,60.75
2022-12-01T15:08:42.002Z,59.33
2022-12-01T15:11:22.729Z,62.38
2022-12-01T15:13:53.199Z,58.67
2022-12-01T15:16:22.882Z,68.53
2022-12-01T15:21:22.324Z,58.20
2022-12-01T15:23:59.396Z,59.42
2022-12-01T15:26:33.492Z,61.58
2022-12-01T15:29:22.617Z,69.45
2022-12-01T15:31:57.991Z,66.18
2022-12-01T15:34:33.605Z,66.22
2022-12-01T15:37:04.566Z,62.47
2022-12-01T15:39:44.882Z,62.97
2022-12-01T15:42:29.551Z,64.20
2022-12-01T15:45:09.669Z,65.65
2022-12-01T15:47:46.235Z,67.05
2022-12-01T15:50:33.921Z,71.05
2022-12-01T15:53:06.349Z,71.35
2022-12-01T15:55:45.156Z,68.60
2022-12-01T15:58:25.827Z,68.68
2022-12-01T16:01:01.208Z,78.57
2022-12-01T16:03:29.702Z,69.88
2022-12-01T16:05:57.800Z,72.65
2022-12-01T16:12:27.846Z,68.05
2022-12-01T16:15:14.816Z,70.25
2022-12-01T16:17:53.244Z,74.35
2022-12-01T16:30:31.902Z,70.65
2022-12-01T16:33:17.093Z,67.30
2022-12-01T16:35:51.835Z,69.32
2022-12-01T16:38:24.227Z,71.03
2022-12-01T16:40:59.676Z,67.38
2022-12-01T16:43:27.418Z,69.60
2022-12-01T16:46:09.346Z,74.80
2022-12-01T16:48:37.600Z,72.70
2022-12-01T16:51:07.691Z,70.50
2022-12-01T16:53:34.716Z,73.93
2022-12-01T16:56:02.231Z,88.35
2022-12-01T16:58:29.192Z,85.35
2022-12-01T17:00:55.896Z,76.90
2022-12-01T17:03:28.677Z,88.95
2022-12-01T17:05:55.614Z,82.28
2022-12-01T17:08:22.706Z,89.70
2022-12-01T17:10:50.748Z,83.18
2022-12-01T17:13:18.477Z,85.78
2022-12-01T17:15:47.640Z,84.20
2022-12-01T17:18:16.271Z,88.82
2022-12-01T17:20:43.130Z,88.65
2022-12-01T17:23:10.075Z,85.68
2022-12-01T17:25:41.037Z,90.03
2022-12-01T17:28:07.911Z,87.38
2022-12-01T17:30:36.392Z,88.85
2022-12-01T17:33:03.095Z,91.07
2022-12-01T17:35:29.697Z,87.78
2022-12-01T17:37:56.238Z,88.15
2022-12-01T17:40:22.917Z,95.10
2022-12-01T17:42:51.099Z,93.82
2022-12-01T17:45:18.957Z,82.30
2022-12-01T17:47:46.156Z,91.47
2022-12-01T17:50:12.796Z,91.28
2022-12-01T17:52:39.396Z,86.28
2022-12-01T17:55:07.302Z,89.82
2022-12-01T17:57:34.620Z,83.10
2022-12-01T18:00:04.134Z,98.18
2022-12-01T18:02:35.170Z,95.95
2022-12-01T18:05:01.839Z,95.85
2022-12-01T18:07:29.022Z,103.28
2022-12-01T18:09:55.578Z,90.53
2022-12-01T18:12:22.301Z,101.32
2022-12-01T18:14:49.123Z,99.43
2022-12-01T18:17:16.024Z,101.53
2022-12-01T18:19:42.556Z,97.63
2022-12-01T18:22:12.516Z,94.50
2022-12-01T18:24:39.083Z,99.10
2022-12-01T18:27:05.799Z,93.85
2022-12-01T18:29:32.397Z,102.43
2022-12-01T18:32:00.272Z,97.97
2022-12-01T18:34:31.998Z,102.72
2022-12-01T18:36:58.718Z,96.63
2022-12-01T18:39:25.470Z,106.43
2022-12-01T18:41:52.257Z,106.30
2022-12-01T18:44:20.527Z,108.85
2022-12-01T18:46:52.867Z,103.50
2022-12-01T18:49:24.314Z,112.05
2022-12-01T18:51:55.614Z,113.07
2022-12-01T18:54:26.627Z,110.88
2022-12-01T18:56:59.418Z,111.18
2022-12-01T18:59:30.597Z,110.18
2022-12-01T19:02:09.110Z,109.47
2022-12-01T19:05:01.370Z,110.90
2022-12-01T19:07:50.624Z,106.20
2022-12-01T19:10:42.341Z,110.50
2022-12-01T19:13:23.159Z,98.22
2022-12-01T19:15:57.179Z,112.55
2022-12-01T19:18:48.004Z,108.93
2022-12-01T19:21:32.488Z,110.75
2022-12-01T19:24:08.378Z,119.78
2022-12-01T19:26:45.214Z,122.53
2022-12-01T19:29:40.241Z,112.25
2022-12-01T19:32:12.480Z,124.57
2022-12-01T19:34:54.792Z,122.35
2022-12-01T19:37:28.796Z,128.73
2022-12-01T19:40:05.623Z,117.75
2022-12-01T19:42:39.766Z,126.10
2022-12-01T19:45:24.027Z,124.25
2022-12-01T19:48:03.243Z,123.57
2022-12-01T19:50:44.933Z,122.47
2022-12-01T19:53:33.281Z,127.93
2022-12-01T19:56:24.201Z,131.40
2022-12-01T19:59:04.196Z,125.30
2022-12-01T20:01:42.840Z,115.55
2022-12-01T20:04:23.777Z,107.95
2022-12-01T20:07:02.976Z,117.07
2022-12-01T20:09:46.871Z,106.60
2022-12-01T20:12:43.207Z,107.88
2022-12-01T20:15:19.637Z,126.22
2022-12-01T20:18:01.953Z,122.13
2022-12-01T20:20:43.108Z,109.03
2022-12-01T20:23:25.857Z,116.53
2022-12-01T20:26:07.368Z,122.20
2022-12-01T20:28:42.909Z,106.93
2022-12-01T20:31:40.682Z,112.22
2022-12-01T20:34:30.695Z,116.20
2022-12-01T20:37:06.550Z,114.05
2022-12-01T20:39:41.072Z,120.95
2022-12-01T20:42:11.459Z,114.18
2022-12-01T20:44:38.268Z,103.15
2022-12-01T20:47:07.850Z,108.20
2022-12-01T20:49:34.942Z,105.05
2022-12-01T20:52:01.931Z,108.57
2022-12-01T20:54:30.062Z,116.30
2022-12-01T20:56:58.568Z,105.25
2022-12-01T20:59:25.654Z,113.78
2022-12-01T21:01:52.639Z,117.05
2022-12-01T21:04:19.512Z,122.20
2022-12-01T21:06:46.320Z,114.47
2022-12-01T21:09:13.366Z,115.05
2022-12-01T21:12:09.011Z,119.93
2022-12-01T21:14:44.515Z,119.68
2022-12-01T21:17:39.744Z,115.28
2022-12-01T21:20:22.110Z,116.78
2022-12-01T21:22:50.326Z,117.90
2022-12-01T21:25:23.897Z,111.50
2022-12-01T21:27:50.796Z,113.35
2022-12-01T21:30:24.976Z,109.80
2022-12-01T21:32:52.859Z,126.90
2022-12-01T21:35:22.267Z,117.32
2022-12-01T21:37:49.326Z,116.35
2022-12-01T21:40:16.517Z,122.10
2022-12-01T21:42:43.609Z,111.13
2022-12-01T21:45:27.526Z,113.07
2022-12-01T21:48:00.105Z,108.38
2022-12-01T21:50:27.394Z,117.28
2022-12-01T21:52:54.133Z,121.63
2022-12-01T21:55:20.625Z,127.20
2022-12-01T21:57:50.033Z,125.15
2022-12-01T22:00:28.770Z,127.35
2022-12-01T22:03:13.249Z,124.73
2022-12-01T22:05:48.902Z,117.28
2022-12-01T22:08:40.488Z,121.00
2022-12-01T22:11:18.665Z,120.70
2022-12-01T22:13:51.255Z,124.63
2022-12-01T22:16:28.016Z,128.88
2022-12-01T22:19:24.808Z,139.52
2022-12-01T22:21:59.584Z,133.07
2022-12-01T22:24:38.863Z,132.43
2022-12-01T22:27:05.406Z,127.30
2022-12-01T22:29:39.172Z,136.93
2022-12-01T22:32:34.029Z,132.02
2022-12-01T22:35:17.094Z,132.88
2022-12-01T22:37:48.112Z,132.90
2022-12-01T22:40:36.299Z,124.97
2022-12-01T22:43:15.361Z,122.07
2022-12-01T22:46:07.394Z,132.40
2022-12-01T22:48:41.418Z,131.45
2022-12-01T22:51:14.179Z,130.80
2022-12-01T22:53:42.194Z,130.43
2022-12-01T22:56:39.693Z,124.38
2022-12-01T22:59:32.449Z,119.20
2022-12-01T23:02:01.782Z,129.23
2022-12-01T23:04:33.318Z,137.10
2022-12-01T23:07:30.715Z,138.15
2022-12-01T23:10:08.554Z,127.95
2022-12-01T23:12:36.390Z,121.07
2022-12-01T23:15:37.628Z,124.53
2022-12-01T23:18:23.522Z,125.07
2022-12-01T23:20:54.367Z,133.77
2022-12-01T23:23:26.284Z,131.35
2022-12-01T23:25:52.998Z,126.60
2022-12-01T23:28:20.744Z,132.82
2022-12-01T23:30:51.211Z,123.00
2022-12-01T23:33:27.731Z,125.40
2022-12-01T23:36:05.177Z,124.65
2022-12-01T23:38:38.038Z,122.00
2022-12-01T23:41:07.571Z,130.27
2022-12-01T23:43:42.808Z,136.07
2022-12-01T23:46:20.851Z,135.65
2022-12-01T23:49:01.260Z,144.75
2022-12-01T23:51:46.735Z,138.40
2022-12-01T23:54:18.190Z,140.93
2022-12-01T23:56:51.635Z,135.27
2022-12-01T23:59:19.793Z,145.13
